createdAt,value
2023-03-20T00:00:16.343Z,100761.09
2023-03-20T00:03:18.237Z,100771.34
2023-03-20T00:06:24.633Z,100773.09
2023-03-20T00:09:26.599Z,100767.88
2023-03-20T00:12:28.029Z,100776.63
2023-03-20T00:15:37.921Z,100780.16
2023-03-20T00:18:41.794Z,100781.03
2023-03-20T00:21:45.821Z,100777.53
2023-03-20T00:24:47.425Z,100776.63
2023-03-20T00:27:49.199Z,100773.00
2023-03-20T00:30:51.902Z,100780.09
2023-03-20T00:33:56.063Z,100775.75
2023-03-20T00:36:58.036Z,100769.72
2023-03-20T00:39:59.513Z,100773.16
2023-03-20T00:43:03.120Z,100775.72
2023-03-20T00:46:04.681Z,100782.00
2023-03-20T00:49:06.354Z,100775.94
2023-03-20T00:52:12.470Z,100776.97
2023-03-20T00:55:13.962Z,100778.72
2023-03-20T00:58:15.772Z,100779.44
2023-03-20T01:01:17.975Z,100778.53
2023-03-20T01:04:20.624Z,100775.88
2023-03-20T01:07:22.129Z,100774.09
2023-03-20T01:10:30.251Z,100773.13
2023-03-20T01:13:32.632Z,100776.63
2023-03-20T01:16:34.087Z,100767.81
2023-03-20T01:19:36.417Z,100767.88
2023-03-20T01:22:37.804Z,100772.28
2023-03-20T01:25:39.437Z,100775.81
2023-03-20T01:28:40.874Z,100775.06
2023-03-20T01:31:42.488Z,100775.88
2023-03-20T01:34:44.299Z,100775.16
2023-03-20T01:37:46.042Z,100785.72
2023-03-20T01:40:54.774Z,100783.25
2023-03-20T01:43:57.153Z,100781.53
2023-03-20T01:47:00.025Z,100784.75
2023-03-20T01:50:23.981Z,100791.19
2023-03-20T01:53:30.188Z,100788.66
2023-03-20T01:56:42.798Z,100792.31
2023-03-20T02:00:13.541Z,100793.06
2023-03-20T02:03:19.110Z,100796.59
2023-03-20T02:06:50.784Z,100806.25
2023-03-20T02:09:57.832Z,100805.53
2023-03-20T02:13:11.152Z,100806.44
2023-03-20T02:16:20.339Z,100802.00
2023-03-20T02:20:12.474Z,100802.81
2023-03-20T02:23:34.076Z,100798.50
2023-03-20T02:26:56.345Z,100795.13
2023-03-20T02:30:42.775Z,100791.41
2023-03-20T02:33:56.872Z,100795.06
2023-03-20T02:37:16.994Z,100793.22
2023-03-20T02:40:38.439Z,100799.31
2023-03-20T02:43:50.143Z,100805.66
2023-03-20T02:47:23.956Z,100811.69
2023-03-20T02:50:50.002Z,100805.66
2023-03-20T02:53:55.403Z,100803.59
2023-03-20T02:57:15.910Z,100799.28
2023-03-20T03:00:28.422Z,100799.53
2023-03-20T03:03:38.386Z,100797.84
2023-03-20T03:06:44.115Z,100795.34
2023-03-20T03:09:52.501Z,100805.84
2023-03-20T03:12:56.057Z,100801.34
2023-03-20T03:16:04.224Z,100809.22
2023-03-20T03:19:10.427Z,100804.84
2023-03-20T03:22:12.487Z,100806.53
2023-03-20T03:25:13.974Z,100812.84
2023-03-20T03:28:26.242Z,100817.91
2023-03-20T03:31:29.883Z,100811.81
2023-03-20T03:34:33.146Z,100815.13
2023-03-20T03:38:12.674Z,100816.13
2023-03-20T03:41:24.883Z,100817.91
2023-03-20T03:44:35.391Z,100814.53
2023-03-20T03:48:18.888Z,100810.22
2023-03-20T03:51:24.876Z,100802.28
2023-03-20T03:55:00.133Z,100800.50
2023-03-20T03:58:09.239Z,100800.63
2023-03-20T04:01:13.019Z,100810.41
2023-03-20T04:04:16.453Z,100805.03
2023-03-20T04:07:18.221Z,100807.78
2023-03-20T04:10:19.678Z,100811.25
2023-03-20T04:13:21.114Z,100813.09
2023-03-20T04:16:24.492Z,100822.66
2023-03-20T04:19:25.985Z,100822.53
2023-03-20T04:22:27.867Z,100833.94
2023-03-20T04:25:32.215Z,100828.84
2023-03-20T04:28:33.803Z,100839.38
2023-03-20T04:31:57.042Z,100844.69
2023-03-20T04:35:13.526Z,100841.16
2023-03-20T04:38:26.908Z,100844.78
2023-03-20T04:41:29.477Z,100849.22
2023-03-20T04:44:32.628Z,100849.97
2023-03-20T04:47:36.596Z,100844.84
2023-03-20T04:50:39.258Z,100844.06
2023-03-20T04:53:41.027Z,100835.28
2023-03-20T04:56:42.708Z,100837.78
2023-03-20T04:59:55.244Z,100836.03
2023-03-20T05:02:57.052Z,100837.75
2023-03-20T05:05:59.073Z,100839.56
2023-03-20T05:09:00.933Z,100838.00
2023-03-20T05:12:05.472Z,100848.53
2023-03-20T05:15:33.984Z,100850.25
2023-03-20T05:19:02.238Z,100855.38
2023-03-20T05:22:39.567Z,100851.84
2023-03-20T05:25:48.809Z,100847.56
2023-03-20T05:29:10.577Z,100851.06
2023-03-20T05:32:30.450Z,100846.00
2023-03-20T05:35:54.784Z,100856.38
2023-03-20T05:39:07.667Z,100861.63
2023-03-20T05:42:31.992Z,100865.19
2023-03-20T05:45:56.664Z,100873.03
2023-03-20T05:49:21.268Z,100861.63
2023-03-20T05:52:49.301Z,100865.91
2023-03-20T05:56:10.998Z,100857.22
2023-03-20T05:59:15.376Z,100858.81
2023-03-20T06:02:26.424Z,100860.50
2023-03-20T06:05:37.954Z,100854.47
2023-03-20T06:08:39.645Z,100857.59
2023-03-20T06:11:41.369Z,100853.41
2023-03-20T06:14:43.856Z,100855.75
2023-03-20T06:17:46.386Z,100854.50
2023-03-20T06:20:53.565Z,100861.94
2023-03-20T06:23:55.275Z,100872.47
2023-03-20T06:26:58.691Z,100881.03
2023-03-20T06:30:01.462Z,100883.50
2023-03-20T06:33:07.696Z,100897.00
2023-03-20T06:36:25.860Z,100892.72
2023-03-20T06:39:33.913Z,100898.88
2023-03-20T06:42:36.386Z,100894.50
2023-03-20T06:45:39.966Z,100889.28
2023-03-20T06:48:52.050Z,100886.56
2023-03-20T06:51:53.852Z,100903.94
2023-03-20T06:54:59.699Z,100905.69
2023-03-20T06:58:01.212Z,100903.78
2023-03-20T07:01:10.097Z,100902.78
2023-03-20T07:04:11.946Z,100915.81
2023-03-20T07:07:20.897Z,100923.22
2023-03-20T07:10:23.593Z,100919.53
2023-03-20T07:13:28.251Z,100917.78
2023-03-20T07:16:31.258Z,100930.16
2023-03-20T07:19:32.746Z,100918.03
2023-03-20T07:22:34.208Z,100924.88
2023-03-20T07:25:50.437Z,100918.38
2023-03-20T07:28:54.444Z,100919.31
2023-03-20T07:32:00.991Z,100919.31
2023-03-20T07:35:07.613Z,100922.84
2023-03-20T07:38:09.099Z,100905.28
2023-03-20T07:41:20.189Z,100912.28
2023-03-20T07:44:32.723Z,100914.72
2023-03-20T07:47:36.361Z,100910.31
2023-03-20T07:50:39.534Z,100910.13
2023-03-20T07:53:41.330Z,100914.31
2023-03-20T07:56:43.470Z,100911.44
2023-03-20T07:59:45.746Z,100913.28
2023-03-20T08:02:47.273Z,100913.94
2023-03-20T08:05:48.811Z,100914.03
2023-03-20T08:08:52.434Z,100920.19
2023-03-20T08:11:53.834Z,100925.56
2023-03-20T08:14:55.403Z,100923.28
2023-03-20T08:17:58.670Z,100922.72
2023-03-20T08:21:00.318Z,100930.69
2023-03-20T08:24:01.820Z,100930.09
2023-03-20T08:27:03.728Z,100936.34
2023-03-20T08:30:05.526Z,100936.44
2023-03-20T08:33:07.259Z,100934.59
2023-03-20T08:36:08.943Z,100944.84
2023-03-20T08:39:10.668Z,100942.94
2023-03-20T08:42:12.132Z,100946.69
2023-03-20T08:45:13.678Z,100953.34
2023-03-20T08:48:15.124Z,100936.72
2023-03-20T08:51:16.600Z,100945.41
2023-03-20T08:54:18.487Z,100942.88
2023-03-20T08:57:19.991Z,100949.81
2023-03-20T09:00:22.362Z,100949.63
2023-03-20T09:03:23.764Z,100964.56
2023-03-20T09:06:25.898Z,100965.47
2023-03-20T09:09:29.322Z,100964.59
2023-03-20T09:12:32.598Z,100973.78
2023-03-20T09:15:35.472Z,100979.91
2023-03-20T09:18:38.190Z,100978.13
2023-03-20T09:21:39.602Z,100987.09
2023-03-20T09:24:41.738Z,100976.56
2023-03-20T09:27:43.334Z,100983.78
2023-03-20T09:30:45.767Z,100984.06
2023-03-20T09:33:47.367Z,100990.09
2023-03-20T09:36:49.021Z,100997.06
2023-03-20T09:39:50.744Z,100992.69
2023-03-20T09:43:04.371Z,100996.28
2023-03-20T09:46:11.959Z,101000.53
2023-03-20T09:49:35.541Z,100997.72
2023-03-20T09:52:58.271Z,101005.38
2023-03-20T09:56:00.262Z,101007.75
2023-03-20T09:59:04.940Z,101005.09
2023-03-20T10:02:16.504Z,101001.44
2023-03-20T10:05:26.656Z,100994.41
2023-03-20T10:08:39.000Z,100990.44
2023-03-20T10:12:08.437Z,100992.00
2023-03-20T10:15:20.701Z,100994.84
2023-03-20T10:18:27.947Z,100995.31
2023-03-20T10:21:43.740Z,100998.78
2023-03-20T10:24:51.228Z,101001.53
2023-03-20T10:27:59.935Z,100998.69
2023-03-20T10:31:30.159Z,101001.88
2023-03-20T10:34:48.304Z,100992.78
2023-03-20T10:38:23.656Z,100990.16
2023-03-20T10:41:31.616Z,100981.06
2023-03-20T10:44:42.132Z,100975.66
2023-03-20T10:47:48.800Z,100976.47
2023-03-20T10:51:00.297Z,100975.72
2023-03-20T10:54:06.235Z,100967.75
2023-03-20T10:57:15.253Z,100971.63
2023-03-20T11:00:23.168Z,100968.34
2023-03-20T11:03:28.349Z,100969.31
2023-03-20T11:06:42.192Z,100969.84
2023-03-20T11:09:43.760Z,100970.63
2023-03-20T11:12:49.594Z,100967.88
2023-03-20T11:15:53.432Z,100966.44
2023-03-20T11:18:55.033Z,100969.28
2023-03-20T11:22:00.150Z,100960.03
2023-03-20T11:25:02.564Z,100962.59
2023-03-20T11:28:31.287Z,100960.91
2023-03-20T11:31:40.784Z,100953.28
2023-03-20T11:34:43.396Z,100958.81
2023-03-20T11:37:47.358Z,100955.34
2023-03-20T11:40:52.376Z,100940.63
2023-03-20T11:43:53.903Z,100943.81
2023-03-20T11:47:04.532Z,100933.41
2023-03-20T11:50:24.803Z,100931.75
2023-03-20T11:53:31.065Z,100939.69
2023-03-20T11:56:33.880Z,100932.94
2023-03-20T11:59:36.913Z,100927.19
2023-03-20T12:02:41.733Z,100925.28
2023-03-20T12:05:43.216Z,100933.91
2023-03-20T12:08:52.181Z,100921.94
2023-03-20T12:12:00.209Z,100921.41
2023-03-20T12:15:13.553Z,100913.22
2023-03-20T12:18:35.941Z,100918.81
2023-03-20T12:22:04.336Z,100914.16
2023-03-20T12:25:26.888Z,100916.41
2023-03-20T12:28:46.694Z,100902.91
2023-03-20T12:32:34.733Z,100902.84
2023-03-20T12:35:41.187Z,100888.59
2023-03-20T12:38:44.334Z,100882.22
2023-03-20T12:42:23.437Z,100884.03
2023-03-20T12:45:44.196Z,100877.34
2023-03-20T12:49:19.828Z,100875.91
2023-03-20T12:52:33.804Z,100871.75
2023-03-20T12:56:09.643Z,100873.00
2023-03-20T12:59:27.290Z,100867.91
2023-03-20T13:02:34.009Z,100867.69
2023-03-20T13:05:36.380Z,100850.28
2023-03-20T13:08:51.987Z,100859.06
2023-03-20T13:12:08.700Z,100851.41
2023-03-20T13:15:16.187Z,100844.31
2023-03-20T13:18:29.826Z,100851.75
2023-03-20T13:21:57.822Z,100844.66
2023-03-20T13:25:10.340Z,100838.63
2023-03-20T13:28:45.837Z,100839.22
2023-03-20T13:31:58.262Z,100843.16
2023-03-20T13:35:16.676Z,100840.88
2023-03-20T13:38:24.430Z,100840.88
2023-03-20T13:41:26.917Z,100831.84
2023-03-20T13:44:31.469Z,100829.38
2023-03-20T13:47:36.167Z,100826.84
2023-03-20T13:50:49.435Z,100828.56
2023-03-20T13:54:12.309Z,100820.53
2023-03-20T13:57:53.957Z,100822.13
2023-03-20T14:01:07.480Z,100819.13
2023-03-20T14:04:18.202Z,100812.94
2023-03-20T14:07:34.402Z,100807.50
2023-03-20T14:10:37.277Z,100808.06
2023-03-20T14:13:40.057Z,100799.88
2023-03-20T14:16:42.018Z,100801.72
2023-03-20T14:19:43.843Z,100803.75
2023-03-20T14:22:46.305Z,100802.28
2023-03-20T14:25:49.151Z,100805.03
2023-03-20T14:29:01.148Z,100793.22
2023-03-20T14:32:06.067Z,100802.53
2023-03-20T14:35:07.389Z,100801.84
2023-03-20T14:38:23.581Z,100796.56
2023-03-20T14:41:39.815Z,100800.75
2023-03-20T14:45:18.407Z,100802.16
2023-03-20T14:48:37.836Z,100805.19
2023-03-20T14:51:48.115Z,100794.56
2023-03-20T14:54:54.332Z,100795.47
2023-03-20T14:57:57.848Z,100786.72
2023-03-20T15:01:05.324Z,100799.50
2023-03-20T15:04:12.699Z,100785.47
2023-03-20T15:07:26.672Z,100786.75
2023-03-20T15:10:29.068Z,100787.75
2023-03-20T15:13:31.239Z,100798.63
2023-03-20T15:16:35.192Z,100795.19
2023-03-20T15:19:39.863Z,100803.53
2023-03-20T15:22:55.677Z,100804.31
2023-03-20T15:26:00.357Z,100801.72
2023-03-20T15:29:16.004Z,100800.00
2023-03-20T15:32:18.003Z,100804.44
2023-03-20T15:35:23.093Z,100807.75
2023-03-20T15:38:30.326Z,100810.88
2023-03-20T15:41:35.575Z,100807.38
2023-03-20T15:44:39.852Z,100808.97
2023-03-20T15:47:42.835Z,100808.38
2023-03-20T15:50:53.544Z,100804.28
2023-03-20T15:53:55.455Z,100810.19
2023-03-20T15:57:00.860Z,100799.72
2023-03-20T16:00:06.098Z,100795.50
2023-03-20T16:03:14.970Z,100793.25
2023-03-20T16:06:20.625Z,100795.78
2023-03-20T16:09:23.171Z,100789.28
2023-03-20T16:12:26.899Z,100783.94
2023-03-20T16:15:31.500Z,100791.28
2023-03-20T16:18:37.228Z,100781.59
2023-03-20T16:21:43.364Z,100783.06
2023-03-20T16:24:48.205Z,100782.00
2023-03-20T16:27:51.806Z,100797.06
2023-03-20T16:30:55.597Z,100800.00
2023-03-20T16:34:05.480Z,100797.13
2023-03-20T16:37:21.513Z,100796.25
2023-03-20T16:40:37.066Z,100798.00
2023-03-20T16:43:39.091Z,100792.75
2023-03-20T16:47:20.797Z,100793.56
2023-03-20T16:50:34.966Z,100796.69
2023-03-20T16:53:41.969Z,100807.28
2023-03-20T16:56:52.388Z,100804.19
2023-03-20T17:00:00.935Z,100809.06
2023-03-20T17:03:13.282Z,100802.25
2023-03-20T17:06:23.408Z,100805.69
2023-03-20T17:09:28.070Z,100802.50
2023-03-20T17:12:32.292Z,100806.84
2023-03-20T17:15:33.820Z,100812.69
2023-03-20T17:18:36.695Z,100813.13
2023-03-20T17:21:38.167Z,100815.53
2023-03-20T17:24:39.577Z,100816.69
2023-03-20T17:27:41.552Z,100826.13
2023-03-20T17:30:42.958Z,100825.53
2023-03-20T17:33:45.497Z,100829.00
2023-03-20T17:36:48.205Z,100826.41
2023-03-20T17:39:50.153Z,100827.47
2023-03-20T17:42:51.552Z,100837.22
2023-03-20T17:45:53.023Z,100831.03
2023-03-20T17:49:06.902Z,100835.22
2023-03-20T17:52:17.712Z,100828.13
2023-03-20T17:55:19.367Z,100829.41
2023-03-20T17:58:22.954Z,100837.09
2023-03-20T18:01:24.904Z,100847.78
2023-03-20T18:04:26.960Z,100848.06
2023-03-20T18:07:28.386Z,100843.53
2023-03-20T18:10:35.000Z,100842.63
2023-03-20T18:13:36.856Z,100843.03
2023-03-20T18:16:38.315Z,100839.63
2023-03-20T18:19:40.278Z,100840.72
2023-03-20T18:22:41.676Z,100848.25
2023-03-20T18:25:43.154Z,100846.28
2023-03-20T18:28:44.581Z,100841.31
2023-03-20T18:31:47.117Z,100846.81
2023-03-20T18:34:48.592Z,100844.31
2023-03-20T18:37:50.196Z,100833.00
2023-03-20T18:40:52.621Z,100832.56
2023-03-20T18:43:55.581Z,100829.28
2023-03-20T18:46:57.013Z,100832.91
2023-03-20T18:49:58.616Z,100837.31
2023-03-20T18:53:00.483Z,100834.03
2023-03-20T18:56:02.168Z,100842.88
2023-03-20T18:59:07.578Z,100838.25
2023-03-20T19:02:09.094Z,100834.53
2023-03-20T19:05:11.558Z,100843.75
2023-03-20T19:08:15.888Z,100850.22
2023-03-20T19:11:21.086Z,100850.09
2023-03-20T19:14:23.172Z,100850.81
2023-03-20T19:17:24.578Z,100835.56
2023-03-20T19:20:34.193Z,100838.72
2023-03-20T19:23:35.720Z,100832.63
2023-03-20T19:26:37.546Z,100836.31
2023-03-20T19:29:40.242Z,100845.19
2023-03-20T19:32:43.229Z,100838.91
2023-03-20T19:36:01.773Z,100838.81
2023-03-20T19:39:07.441Z,100835.66
2023-03-20T19:42:30.393Z,100840.16
2023-03-20T19:45:33.594Z,100845.44
2023-03-20T19:48:50.209Z,100838.56
2023-03-20T19:51:52.424Z,100840.31
2023-03-20T19:55:02.633Z,100841.25
2023-03-20T19:58:06.296Z,100838.66
2023-03-20T20:01:14.958Z,100841.25
2023-03-20T20:04:16.882Z,100839.63
2023-03-20T20:08:00.792Z,100837.75
2023-03-20T20:10:51.870Z,100833.69
2023-03-20T20:14:10.361Z,100831.94
2023-03-20T20:17:14.760Z,100834.16
2023-03-20T20:20:20.586Z,100834.44
2023-03-20T20:23:28.035Z,100825.75
2023-03-20T20:26:31.295Z,100824.31
2023-03-20T20:29:36.412Z,100832.50
2023-03-20T20:32:38.841Z,100830.00
2023-03-20T20:36:01.292Z,100827.31
2023-03-20T20:39:01.977Z,100814.81
2023-03-20T20:42:03.919Z,100821.69
2023-03-20T20:45:07.854Z,100814.81
2023-03-20T20:48:10.200Z,100820.97
2023-03-20T20:51:11.757Z,100820.22
2023-03-20T20:54:14.095Z,100821.13
2023-03-20T20:57:15.752Z,100820.28
2023-03-20T21:00:18.329Z,100821.94
2023-03-20T21:03:19.820Z,100827.22
2023-03-20T21:06:21.942Z,100815.03
2023-03-20T21:09:24.258Z,100822.13
2023-03-20T21:12:36.436Z,100819.75
2023-03-20T21:15:43.180Z,100816.44
2023-03-20T21:18:45.288Z,100833.13
2023-03-20T21:21:46.788Z,100820.63
2023-03-20T21:24:50.217Z,100817.88
2023-03-20T21:27:52.016Z,100820.44
2023-03-20T21:31:22.626Z,100820.44
2023-03-20T21:34:15.598Z,100816.97
2023-03-20T21:38:37.631Z,100819.75
2023-03-20T21:40:41.885Z,100820.72
2023-03-20T21:43:46.467Z,100823.28
2023-03-20T21:54:34.246Z,100813.81
2023-03-20T22:07:37.504Z,100824.19
2023-03-20T22:14:40.693Z,100832.22
2023-03-20T22:24:37.919Z,100835.38
2023-03-20T22:44:43.488Z,100827.75
2023-03-20T22:47:16.936Z,100820.00
2023-03-20T22:50:18.442Z,100830.44
2023-03-20T22:53:19.833Z,100822.72
2023-03-20T22:56:21.336Z,100830.50
2023-03-20T22:59:22.807Z,100818.06
2023-03-20T23:02:24.200Z,100817.06
2023-03-20T23:05:25.683Z,100812.66
2023-03-20T23:08:28.043Z,100807.44
2023-03-20T23:11:29.563Z,100807.41
2023-03-20T23:14:44.777Z,100805.91
2023-03-20T23:17:47.057Z,100806.22
2023-03-20T23:20:48.576Z,100808.13
2023-03-20T23:23:49.997Z,100805.56
2023-03-20T23:26:52.565Z,100801.13
2023-03-20T23:29:53.968Z,100804.75
2023-03-20T23:32:55.441Z,100800.44
2023-03-20T23:36:12.447Z,100810.28
2023-03-20T23:39:19.192Z,100808.56
2023-03-20T23:42:30.360Z,100800.78
2023-03-20T23:45:32.211Z,100799.13
2023-03-20T23:48:34.131Z,100803.94
2023-03-20T23:51:35.682Z,100797.09
2023-03-20T23:54:37.080Z,100799.84
2023-03-20T23:57:38.456Z,100789.38
